createdAt,value
2018-06-27T00:01:36.574Z,3.70
2018-06-27T00:04:04.629Z,4.47
2018-06-27T00:06:32.701Z,3.85
2018-06-27T00:09:00.757Z,4.25
2018-06-27T00:11:28.794Z,4.28
2018-06-27T00:13:56.837Z,3.67
2018-06-27T00:16:24.892Z,3.75
2018-06-27T00:18:52.935Z,3.52
2018-06-27T00:21:20.984Z,3.92
2018-06-27T00:23:49.025Z,3.85
2018-06-27T00:26:17.076Z,3.55
2018-06-27T00:28:45.111Z,3.77
2018-06-27T00:31:13.160Z,4.80
2018-06-27T00:33:41.188Z,4.05
2018-06-27T00:36:09.232Z,3.30
2018-06-27T00:38:37.373Z,4.15
2018-06-27T00:41:05.661Z,3.98
2018-06-27T00:43:33.703Z,3.58
2018-06-27T00:46:01.745Z,3.90
2018-06-27T00:48:29.785Z,4.25
2018-06-27T00:50:57.828Z,4.33
2018-06-27T00:54:30.857Z,4.35
2018-06-27T00:56:58.905Z,3.92
2018-06-27T00:59:26.941Z,3.72
2018-06-27T01:01:54.993Z,4.10
2018-06-27T01:04:23.025Z,4.05
2018-06-27T01:06:51.073Z,4.20
2018-06-27T01:09:19.108Z,3.98
2018-06-27T01:11:47.152Z,3.95
2018-06-27T01:14:15.192Z,4.22
2018-06-27T01:16:43.245Z,3.85
2018-06-27T01:19:11.297Z,4.80
2018-06-27T01:21:39.340Z,4.30
2018-06-27T01:24:07.381Z,4.65
2018-06-27T01:26:35.464Z,4.80
2018-06-27T01:29:03.528Z,5.25
2018-06-27T01:31:31.569Z,3.92
2018-06-27T01:33:59.609Z,4.40
2018-06-27T01:36:27.653Z,4.65
2018-06-27T01:38:55.704Z,4.60
2018-06-27T01:41:24.239Z,4.83
2018-06-27T01:43:52.282Z,5.60
2018-06-27T01:46:20.329Z,4.30
2018-06-27T01:48:48.376Z,4.22
2018-06-27T01:51:16.417Z,4.35
2018-06-27T01:53:44.460Z,4.70
2018-06-27T01:56:12.501Z,4.97
2018-06-27T01:58:40.548Z,4.37
2018-06-27T02:01:08.680Z,4.80
2018-06-27T02:03:36.730Z,4.30
2018-06-27T02:06:04.773Z,5.03
2018-06-27T02:08:32.817Z,4.42
2018-06-27T02:11:00.864Z,4.83
2018-06-27T02:13:28.913Z,4.90
2018-06-27T02:15:56.956Z,4.97
2018-06-27T02:18:25.005Z,5.80
2018-06-27T02:20:53.053Z,4.85
2018-06-27T02:23:21.101Z,4.37
2018-06-27T02:25:49.149Z,5.15
2018-06-27T02:28:17.184Z,4.17
2018-06-27T02:30:45.233Z,4.75
2018-06-27T02:33:18.893Z,5.67
2018-06-27T02:35:46.937Z,4.35
2018-06-27T02:38:14.977Z,5.20
2018-06-27T02:40:43.050Z,5.10
2018-06-27T02:43:11.113Z,5.00
2018-06-27T02:45:39.176Z,4.20
2018-06-27T02:48:07.225Z,4.65
2018-06-27T02:50:35.280Z,5.70
2018-06-27T02:53:03.341Z,4.90
2018-06-27T02:55:31.393Z,5.03
2018-06-27T02:57:59.432Z,5.15
2018-06-27T03:00:27.478Z,4.40
2018-06-27T03:02:55.529Z,4.95
2018-06-27T03:05:23.583Z,4.87
2018-06-27T03:07:51.620Z,4.80
2018-06-27T03:10:20.102Z,4.70
2018-06-27T03:12:48.145Z,4.87
2018-06-27T03:15:16.197Z,4.25
2018-06-27T03:17:44.240Z,4.80
2018-06-27T03:20:12.289Z,4.70
2018-06-27T03:22:40.362Z,4.85
2018-06-27T03:25:08.517Z,5.05
2018-06-27T03:27:36.560Z,4.90
2018-06-27T03:30:05.067Z,4.90
2018-06-27T03:32:33.105Z,5.28
2018-06-27T03:35:01.149Z,5.05
2018-06-27T03:37:29.185Z,4.92
2018-06-27T03:39:57.274Z,5.10
2018-06-27T03:42:25.329Z,4.50
2018-06-27T03:44:53.393Z,5.25
2018-06-27T03:47:21.452Z,5.40
2018-06-27T03:49:49.520Z,5.45
2018-06-27T03:52:17.596Z,4.90
2018-06-27T03:54:45.668Z,4.65
2018-06-27T03:57:13.721Z,5.42
2018-06-27T03:59:41.789Z,5.00
2018-06-27T04:02:09.853Z,4.90
2018-06-27T04:04:37.924Z,4.83
2018-06-27T04:07:05.986Z,4.60
2018-06-27T04:09:34.062Z,5.40
2018-06-27T04:12:02.157Z,4.28
2018-06-27T04:14:30.278Z,4.75
2018-06-27T04:16:58.286Z,4.90
2018-06-27T04:19:26.345Z,5.30
2018-06-27T04:21:54.409Z,4.60
2018-06-27T04:24:22.469Z,5.20
2018-06-27T04:26:50.536Z,5.00
2018-06-27T04:29:18.609Z,5.47
2018-06-27T04:31:46.683Z,4.87
2018-06-27T04:34:14.732Z,4.83
2018-06-27T04:36:42.791Z,5.08
2018-06-27T04:39:11.794Z,5.85
2018-06-27T04:41:40.244Z,5.12
2018-06-27T04:44:08.481Z,5.65
2018-06-27T04:46:36.881Z,5.80
2018-06-27T04:49:04.917Z,5.78
2018-06-27T04:51:33.455Z,5.97
2018-06-27T04:54:01.497Z,5.60
2018-06-27T04:56:29.421Z,4.70
2018-06-27T04:58:57.461Z,5.55
2018-06-27T05:01:25.508Z,5.58
2018-06-27T05:03:53.548Z,4.97
2018-06-27T05:06:21.604Z,5.78
2018-06-27T05:08:49.653Z,6.10
2018-06-27T05:11:17.710Z,5.78
2018-06-27T05:13:45.752Z,5.45
2018-06-27T05:16:13.804Z,5.45
2018-06-27T05:18:41.837Z,5.80
2018-06-27T05:21:09.880Z,6.12
2018-06-27T05:23:37.927Z,5.90
2018-06-27T05:26:05.972Z,5.62
2018-06-27T05:28:34.045Z,5.85
2018-06-27T05:31:02.095Z,5.85
2018-06-27T05:33:30.124Z,5.00
2018-06-27T05:35:58.185Z,6.40
2018-06-27T05:38:26.228Z,6.50
2018-06-27T05:40:54.289Z,6.35
2018-06-27T05:43:22.329Z,5.85
2018-06-27T05:45:50.701Z,6.12
2018-06-27T05:48:18.741Z,6.12
2018-06-27T05:50:46.853Z,6.45
2018-06-27T05:53:14.885Z,5.95
2018-06-27T05:55:42.932Z,6.45
2018-06-27T05:58:11.039Z,6.75
2018-06-27T06:00:39.017Z,6.67
2018-06-27T06:03:07.053Z,7.53
2018-06-27T06:05:35.099Z,6.80
2018-06-27T06:08:03.134Z,6.28
2018-06-27T06:10:31.441Z,5.62
2018-06-27T06:12:59.480Z,6.17
2018-06-27T06:15:27.529Z,5.60
2018-06-27T06:17:55.700Z,6.33
2018-06-27T06:20:23.743Z,5.17
2018-06-27T06:22:51.788Z,5.95
2018-06-27T06:25:19.835Z,5.80
2018-06-27T06:27:47.885Z,5.37
2018-06-27T06:30:15.925Z,5.62
2018-06-27T06:32:43.965Z,5.83
2018-06-27T06:35:12.015Z,5.40
2018-06-27T06:37:40.061Z,4.83
2018-06-27T06:40:08.127Z,4.53
2018-06-27T06:42:36.197Z,4.92
2018-06-27T06:45:04.256Z,5.08
2018-06-27T06:47:32.353Z,4.85
2018-06-27T06:50:00.409Z,4.67
2018-06-27T06:52:28.470Z,4.95
2018-06-27T06:54:56.508Z,4.70
2018-06-27T06:57:24.566Z,4.30
2018-06-27T06:59:53.413Z,4.27
2018-06-27T07:02:21.462Z,4.50
2018-06-27T07:04:49.534Z,4.83
2018-06-27T07:07:17.552Z,4.87
2018-06-27T07:09:45.606Z,4.57
2018-06-27T07:12:13.661Z,3.90
2018-06-27T07:14:41.707Z,4.67
2018-06-27T07:17:09.753Z,4.20
2018-06-27T07:19:37.796Z,4.83
2018-06-27T07:22:05.841Z,4.30
2018-06-27T07:24:33.889Z,3.80
2018-06-27T07:27:01.961Z,4.15
2018-06-27T07:29:30.006Z,4.05
2018-06-27T07:31:58.057Z,4.67
2018-06-27T07:34:26.146Z,4.90
2018-06-27T07:36:54.256Z,5.22
2018-06-27T07:39:22.321Z,4.80
2018-06-27T07:41:50.394Z,4.75
2018-06-27T07:44:18.549Z,4.87
2018-06-27T07:46:46.569Z,5.62
2018-06-27T07:49:14.635Z,4.15
2018-06-27T07:51:42.701Z,5.25
2018-06-27T07:54:10.774Z,4.78
2018-06-27T07:56:38.841Z,4.50
2018-06-27T07:59:06.909Z,5.25
2018-06-27T08:01:34.969Z,5.05
2018-06-27T08:04:03.037Z,5.10
2018-06-27T08:06:35.593Z,4.35
2018-06-27T08:09:05.838Z,4.53
2018-06-27T08:11:33.901Z,4.40
2018-06-27T08:14:01.973Z,4.60
2018-06-27T08:16:30.037Z,4.80
2018-06-27T08:18:58.098Z,4.30
2018-06-27T08:21:26.169Z,4.45
2018-06-27T08:23:54.283Z,4.75
2018-06-27T08:26:22.429Z,4.05
2018-06-27T08:28:50.377Z,4.03
2018-06-27T08:31:18.437Z,4.08
2018-06-27T08:33:46.514Z,4.90
2018-06-27T08:36:14.577Z,4.90
2018-06-27T08:38:42.640Z,4.53
2018-06-27T08:41:10.685Z,4.28
2018-06-27T08:43:38.773Z,4.00
2018-06-27T08:46:06.776Z,3.77
2018-06-27T08:48:34.830Z,3.70
2018-06-27T08:51:02.876Z,3.25
2018-06-27T08:53:30.929Z,3.17
2018-06-27T08:55:58.980Z,3.27
2018-06-27T08:58:27.028Z,3.05
2018-06-27T09:00:55.081Z,3.00
2018-06-27T09:03:23.125Z,2.87
2018-06-27T09:05:51.189Z,2.45
2018-06-27T09:08:19.243Z,2.55
2018-06-27T09:10:47.293Z,2.45
2018-06-27T09:13:15.344Z,2.10
2018-06-27T09:15:43.400Z,2.50
2018-06-27T09:18:11.472Z,2.10
2018-06-27T09:20:39.518Z,2.22
2018-06-27T09:23:07.598Z,2.37
2018-06-27T09:25:35.629Z,2.50
2018-06-27T09:28:03.684Z,2.67
2018-06-27T09:30:31.738Z,2.67
2018-06-27T09:32:59.787Z,2.45
2018-06-27T09:35:27.834Z,2.80
2018-06-27T09:37:55.881Z,2.55
2018-06-27T09:40:23.950Z,2.52
2018-06-27T09:42:52.006Z,2.20
2018-06-27T09:45:20.063Z,2.40
2018-06-27T09:47:48.108Z,2.45
2018-06-27T09:50:16.232Z,2.87
2018-06-27T09:52:44.225Z,2.05
2018-06-27T09:55:12.289Z,2.65
2018-06-27T09:57:40.337Z,2.30
2018-06-27T10:00:12.637Z,1.95
2018-06-27T10:02:40.685Z,2.22
2018-06-27T10:05:08.806Z,2.95
2018-06-27T10:07:36.868Z,2.42
2018-06-27T10:10:04.908Z,1.95
2018-06-27T10:12:32.953Z,2.47
2018-06-27T10:15:01.012Z,2.05
2018-06-27T10:17:29.046Z,2.00
2018-06-27T10:19:57.115Z,1.50
2018-06-27T10:22:25.237Z,2.10
2018-06-27T10:24:53.238Z,1.50
2018-06-27T10:27:21.289Z,1.80
2018-06-27T10:29:49.340Z,1.98
2018-06-27T10:32:17.440Z,1.90
2018-06-27T10:34:45.552Z,1.72
2018-06-27T10:37:13.601Z,2.08
2018-06-27T10:39:41.682Z,1.87
2018-06-27T10:42:09.741Z,1.55
2018-06-27T10:44:37.997Z,1.80
2018-06-27T10:47:06.013Z,2.10
2018-06-27T10:49:34.074Z,2.10
2018-06-27T10:52:02.160Z,1.65
2018-06-27T10:54:30.217Z,1.80
2018-06-27T10:56:58.308Z,1.98
2018-06-27T10:59:26.369Z,1.95
2018-06-27T11:01:54.453Z,1.75
2018-06-27T11:04:22.540Z,2.47
2018-06-27T11:06:50.618Z,2.15
2018-06-27T11:09:18.678Z,2.05
2018-06-27T11:11:46.744Z,2.45
2018-06-27T11:14:14.866Z,2.45
2018-06-27T11:16:42.916Z,2.27
2018-06-27T11:19:10.981Z,2.33
2018-06-27T11:21:39.045Z,1.85
2018-06-27T11:24:07.141Z,1.90
2018-06-27T11:26:35.205Z,1.60
2018-06-27T11:29:03.276Z,1.70
2018-06-27T11:31:31.349Z,1.87
2018-06-27T11:33:59.417Z,1.87
2018-06-27T11:36:27.488Z,2.10
2018-06-27T11:38:55.562Z,1.70
2018-06-27T11:41:23.807Z,1.98
2018-06-27T11:43:51.854Z,1.95
2018-06-27T11:46:19.953Z,1.87
2018-06-27T11:48:48.021Z,1.80
2018-06-27T11:51:16.089Z,2.12
2018-06-27T11:53:44.162Z,1.80
2018-06-27T11:56:12.245Z,1.60
2018-06-27T11:58:40.309Z,1.90
2018-06-27T12:01:08.369Z,1.60
2018-06-27T12:03:36.449Z,1.50
2018-06-27T12:06:04.509Z,1.60
2018-06-27T12:08:32.658Z,1.40
2018-06-27T12:11:00.653Z,1.60
2018-06-27T12:13:28.722Z,1.80
2018-06-27T12:15:56.785Z,1.87
2018-06-27T12:18:24.877Z,1.87
2018-06-27T12:20:52.949Z,2.00
2018-06-27T12:23:21.027Z,2.08
2018-06-27T12:25:49.089Z,2.10
2018-06-27T12:28:17.165Z,2.30
2018-06-27T12:30:45.233Z,1.90
2018-06-27T12:33:13.316Z,2.00
2018-06-27T12:35:41.397Z,2.00
2018-06-27T12:38:09.469Z,1.90
2018-06-27T12:40:37.572Z,2.43
2018-06-27T12:43:05.768Z,2.02
2018-06-27T12:45:33.833Z,1.90
2018-06-27T12:48:01.897Z,2.17
2018-06-27T12:50:29.948Z,2.40
2018-06-27T12:52:58.005Z,2.55
2018-06-27T12:55:26.108Z,2.60
2018-06-27T12:57:54.156Z,2.27
2018-06-27T13:00:22.248Z,2.45
2018-06-27T13:02:50.271Z,2.50
2018-06-27T13:05:18.301Z,2.47
2018-06-27T13:07:46.359Z,2.58
2018-06-27T13:10:14.425Z,3.15
2018-06-27T13:12:42.473Z,2.70
2018-06-27T13:15:10.541Z,2.70
2018-06-27T13:17:38.598Z,3.35
2018-06-27T13:20:06.798Z,2.92
2018-06-27T13:22:34.849Z,3.05
2018-06-27T13:25:02.905Z,3.50
2018-06-27T13:27:30.969Z,3.22
2018-06-27T13:29:59.026Z,3.17
2018-06-27T13:32:27.076Z,3.27
2018-06-27T13:34:55.286Z,3.30
2018-06-27T13:37:23.250Z,3.25
2018-06-27T13:39:51.328Z,3.42
2018-06-27T13:42:19.429Z,2.90
2018-06-27T13:44:47.510Z,2.70
2018-06-27T13:47:15.581Z,2.70
2018-06-27T13:49:43.444Z,2.60
2018-06-27T13:52:11.521Z,2.80
2018-06-27T13:54:39.592Z,3.05
2018-06-27T13:57:07.662Z,2.75
2018-06-27T13:59:35.789Z,3.45
2018-06-27T14:02:03.864Z,3.02
2018-06-27T14:04:31.945Z,3.02
2018-06-27T14:07:00.018Z,2.70
2018-06-27T14:09:28.077Z,2.70
2018-06-27T14:11:56.150Z,2.40
2018-06-27T14:14:24.213Z,3.00
2018-06-27T14:16:52.280Z,3.22
2018-06-27T14:19:20.352Z,2.98
2018-06-27T14:21:48.428Z,2.98
2018-06-27T14:24:16.548Z,3.47
2018-06-27T14:26:44.601Z,3.25
2018-06-27T14:29:12.693Z,3.42
2018-06-27T14:31:40.812Z,3.15
2018-06-27T14:34:08.895Z,3.40
2018-06-27T14:36:36.953Z,2.90
2018-06-27T14:39:06.324Z,3.02
2018-06-27T14:41:34.426Z,3.33
2018-06-27T14:44:02.600Z,2.80
2018-06-27T14:46:30.553Z,2.83
2018-06-27T14:48:58.577Z,2.77
2018-06-27T14:51:26.676Z,3.00
2018-06-27T14:53:54.716Z,2.70
2018-06-27T14:56:22.764Z,2.30
2018-06-27T14:58:50.813Z,2.95
2018-06-27T15:01:18.873Z,2.40
2018-06-27T15:03:46.918Z,2.20
2018-06-27T15:06:14.975Z,2.30
2018-06-27T15:08:43.549Z,2.00
2018-06-27T15:11:11.671Z,2.60
2018-06-27T15:13:39.726Z,2.50
2018-06-27T15:16:07.801Z,2.08
2018-06-27T15:18:37.831Z,2.80
2018-06-27T15:21:05.925Z,2.30
2018-06-27T15:23:34.036Z,2.00
2018-06-27T15:26:02.009Z,2.30
2018-06-27T15:28:30.059Z,1.95
2018-06-27T15:30:58.108Z,2.08
2018-06-27T15:33:26.170Z,2.58
2018-06-27T15:35:54.201Z,1.95
2018-06-27T15:38:22.265Z,2.15
2018-06-27T15:40:50.589Z,2.00
2018-06-27T15:43:18.645Z,2.27
2018-06-27T15:45:46.682Z,2.22
2018-06-27T15:48:14.764Z,1.90
2018-06-27T15:50:42.814Z,2.50
2018-06-27T15:53:10.873Z,2.10
2018-06-27T15:55:38.913Z,1.95
2018-06-27T15:58:06.970Z,1.80
2018-06-27T16:00:35.012Z,1.90
2018-06-27T16:03:03.061Z,2.30
2018-06-27T16:05:31.120Z,2.00
2018-06-27T16:07:59.261Z,2.65
2018-06-27T16:10:27.349Z,2.00
2018-06-27T16:12:55.382Z,2.12
2018-06-27T16:15:23.454Z,1.80
2018-06-27T16:17:51.515Z,2.25
2018-06-27T16:20:19.565Z,2.22
2018-06-27T16:22:47.612Z,1.95
2018-06-27T16:25:15.665Z,1.90
2018-06-27T16:27:43.707Z,1.65
2018-06-27T16:30:11.757Z,2.00
2018-06-27T16:32:39.798Z,1.90
2018-06-27T16:35:07.842Z,2.05
2018-06-27T16:37:35.877Z,2.00
2018-06-27T16:40:03.752Z,2.05
2018-06-27T16:42:31.815Z,2.10
2018-06-27T16:44:59.889Z,1.85
2018-06-27T16:47:27.937Z,2.40
2018-06-27T16:49:55.993Z,1.90
2018-06-27T16:52:24.061Z,1.82
2018-06-27T16:54:52.239Z,1.57
2018-06-27T16:57:20.265Z,1.75
2018-06-27T16:59:48.385Z,1.45
2018-06-27T17:02:16.458Z,1.70
2018-06-27T17:04:44.509Z,1.67
2018-06-27T17:07:12.572Z,1.90
2018-06-27T17:09:40.625Z,1.87
2018-06-27T17:12:09.236Z,1.82
2018-06-27T17:14:37.329Z,1.60
2018-06-27T17:17:05.413Z,2.47
2018-06-27T17:19:33.474Z,1.57
2018-06-27T17:22:01.534Z,1.60
2018-06-27T17:24:29.589Z,1.95
2018-06-27T17:26:57.665Z,2.05
2018-06-27T17:29:25.727Z,2.15
2018-06-27T17:31:53.856Z,2.10
2018-06-27T17:34:21.828Z,1.70
2018-06-27T17:36:49.888Z,2.42
2018-06-27T17:39:17.965Z,1.72
2018-06-27T17:41:46.029Z,2.35
2018-06-27T17:44:14.080Z,2.10
2018-06-27T17:46:42.157Z,2.20
2018-06-27T17:49:10.229Z,2.33
2018-06-27T17:51:38.309Z,2.80
2018-06-27T17:54:06.365Z,2.33
2018-06-27T17:56:34.441Z,2.30
2018-06-27T17:59:03.001Z,2.75
2018-06-27T18:01:31.112Z,2.87
2018-06-27T18:03:59.117Z,2.75
2018-06-27T18:06:27.181Z,2.95
2018-06-27T18:08:55.315Z,3.00
2018-06-27T18:11:23.345Z,2.65
2018-06-27T18:13:51.422Z,2.83
2018-06-27T18:16:19.481Z,2.98
2018-06-27T18:18:47.537Z,3.10
2018-06-27T18:21:15.605Z,3.70
2018-06-27T18:23:43.739Z,3.35
2018-06-27T18:26:13.036Z,3.70
2018-06-27T18:28:41.113Z,2.90
2018-06-27T18:31:09.181Z,3.10
2018-06-27T18:33:37.253Z,3.10
2018-06-27T18:36:05.327Z,3.60
2018-06-27T18:38:33.385Z,3.40
2018-06-27T18:41:01.461Z,3.12
2018-06-27T18:43:29.561Z,2.98
2018-06-27T18:45:57.612Z,3.65
2018-06-27T18:48:25.490Z,3.60
2018-06-27T18:50:53.554Z,3.40
2018-06-27T18:53:21.616Z,2.83
2018-06-27T18:55:50.061Z,3.37
2018-06-27T18:58:18.125Z,3.25
2018-06-27T19:00:46.181Z,3.20
2018-06-27T19:03:14.362Z,3.10
2018-06-27T19:05:42.428Z,3.25
2018-06-27T19:08:10.523Z,3.70
2018-06-27T19:10:38.557Z,3.02
2018-06-27T19:13:06.629Z,3.60
2018-06-27T19:15:34.709Z,3.40
2018-06-27T19:18:02.794Z,2.87
2018-06-27T19:20:30.829Z,3.25
2018-06-27T19:22:58.893Z,3.30
2018-06-27T19:25:27.009Z,3.20
2018-06-27T19:27:55.123Z,3.33
2018-06-27T19:30:23.132Z,3.35
2018-06-27T19:32:51.181Z,3.60
2018-06-27T19:35:19.249Z,3.50
2018-06-27T19:37:47.322Z,3.40
2018-06-27T19:40:15.405Z,3.58
2018-06-27T19:42:43.457Z,3.42
2018-06-27T19:45:11.513Z,3.20
2018-06-27T19:47:39.585Z,3.60
2018-06-27T19:50:07.649Z,3.22
2018-06-27T19:52:35.721Z,3.35
2018-06-27T19:55:03.838Z,3.58
2018-06-27T19:57:31.908Z,3.12
2018-06-27T19:59:59.965Z,3.25
2018-06-27T20:02:28.157Z,3.42
2018-06-27T20:04:56.373Z,3.60
2018-06-27T20:07:24.639Z,3.55
2018-06-27T20:09:52.845Z,3.10
2018-06-27T20:12:20.912Z,3.65
2018-06-27T20:14:48.990Z,3.60
2018-06-27T20:17:17.061Z,3.58
2018-06-27T20:19:51.660Z,3.75
2018-06-27T20:22:19.778Z,3.72
2018-06-27T20:24:47.914Z,3.00
2018-06-27T20:27:15.985Z,3.52
2018-06-27T20:29:44.041Z,3.50
2018-06-27T20:32:12.104Z,3.50
2018-06-27T20:34:40.240Z,3.33
2018-06-27T20:37:08.291Z,3.45
2018-06-27T20:39:36.341Z,3.00
2018-06-27T20:42:04.440Z,3.35
2018-06-27T20:44:32.473Z,2.60
2018-06-27T20:47:00.529Z,2.75
2018-06-27T20:49:28.764Z,3.05
2018-06-27T20:51:56.833Z,3.35
2018-06-27T20:54:24.881Z,2.80
2018-06-27T20:56:53.148Z,2.80
2018-06-27T20:59:22.366Z,2.50
2018-06-27T21:01:50.485Z,3.02
2018-06-27T21:04:19.014Z,3.30
2018-06-27T21:06:47.084Z,2.60
2018-06-27T21:09:15.504Z,3.35
2018-06-27T21:11:43.643Z,3.25
2018-06-27T21:14:11.681Z,2.85
2018-06-27T21:16:39.748Z,3.05
2018-06-27T21:19:07.809Z,3.40
2018-06-27T21:21:35.854Z,3.60
2018-06-27T21:24:03.950Z,3.55
2018-06-27T21:26:31.994Z,3.47
2018-06-27T21:29:00.280Z,3.87
2018-06-27T21:31:28.357Z,3.77
2018-06-27T21:33:56.455Z,3.90
2018-06-27T21:36:24.489Z,3.40
2018-06-27T21:38:52.565Z,3.50
2018-06-27T21:41:20.617Z,3.20
2018-06-27T21:43:48.662Z,3.60
2018-06-27T21:46:16.701Z,2.90
2018-06-27T21:48:44.984Z,3.50
2018-06-27T21:51:13.029Z,3.50
2018-06-27T21:53:41.077Z,4.10
2018-06-27T21:56:09.109Z,4.00
2018-06-27T21:58:37.162Z,4.20
2018-06-27T22:01:05.241Z,3.90
2018-06-27T22:03:33.293Z,3.42
2018-06-27T22:06:01.342Z,2.87
2018-06-27T22:08:29.373Z,3.20
2018-06-27T22:10:57.421Z,3.10
2018-06-27T22:13:25.461Z,2.85
2018-06-27T22:15:53.515Z,3.45
2018-06-27T22:18:21.545Z,3.17
2018-06-27T22:20:49.593Z,3.35
2018-06-27T22:23:17.660Z,2.80
2018-06-27T22:25:45.711Z,2.80
2018-06-27T22:28:13.744Z,4.25
2018-06-27T22:30:41.797Z,3.30
2018-06-27T22:33:09.847Z,3.27
2018-06-27T22:35:37.901Z,3.00
2018-06-27T22:38:05.939Z,3.40
2018-06-27T22:40:34.005Z,3.45
2018-06-27T22:43:02.200Z,3.30
2018-06-27T22:45:30.245Z,3.50
2018-06-27T22:47:58.281Z,3.20
2018-06-27T22:50:26.343Z,3.47
2018-06-27T22:52:54.401Z,3.30
2018-06-27T22:55:22.453Z,3.45
2018-06-27T22:57:50.489Z,3.30
2018-06-27T23:00:21.410Z,3.95
2018-06-27T23:02:49.348Z,3.62
2018-06-27T23:05:17.391Z,2.80
2018-06-27T23:07:45.437Z,3.58
2018-06-27T23:10:13.477Z,3.37
2018-06-27T23:12:41.529Z,3.40
2018-06-27T23:15:09.565Z,3.55
2018-06-27T23:17:37.609Z,3.72
2018-06-27T23:20:05.668Z,3.30
2018-06-27T23:22:41.005Z,3.60
2018-06-27T23:25:09.050Z,3.02
2018-06-27T23:27:37.082Z,3.22
2018-06-27T23:30:05.685Z,3.72
2018-06-27T23:32:33.740Z,3.50
2018-06-27T23:35:01.794Z,2.83
2018-06-27T23:37:29.849Z,3.42
2018-06-27T23:39:57.712Z,3.20
2018-06-27T23:42:25.773Z,2.90
2018-06-27T23:44:53.848Z,3.08
2018-06-27T23:47:21.897Z,3.15
2018-06-27T23:49:49.969Z,3.08
2018-06-27T23:52:18.025Z,2.60
2018-06-27T23:54:46.092Z,3.25
2018-06-27T23:57:14.148Z,3.02
2018-06-27T23:59:42.221Z,3.12
